Garyville, LA (70051)

4:25 AM CST en Enero 26, 2015 (GMT -0600)
APRSWXNET Gramercy LA US | Change Station
CLOSE
Current Station
Estación meteorológica personal
Location: Lutcher, LA
Altura: 13 ft
Estaciones meteorológicas cercanas

Alt 13 ft 30.06 °N, 90.70 °W | Updated 26 minutes ago

Despejado
Despejado
52 ° F
Sensación térmica 52 ° F
N
0
Viento Variable Viento desde NO
Gusts 0.0 mph

Hoy
Alta -- | Baja -- ° F
--% Posibilidad de precipitaciones
Ayer
Alta -- | Baja -- ° F
Precip. -- pul
6:56 AM 5:34 PM
Creciente, 41% visible
Presión 30.05 pul
Visibilidad 10.0 Millas
Nubes Despejado
Punto de rocío 39 ° F
Humedad 61%
Precipitaciones -999.00 pul
Espesor de la nieve No disponible.
UV 0 de una escala de 12
Polen 7.90 de una escala de 12
Calidad del aire No disponible.
Flu Activity No disponible.
METAR KL38 261015Z AUTO 31005KT 10SM CLR 10/01 A3005 RMK AO2 T00960007

More Conditions Fewer Conditions

Presión 30.05 pul
Visibilidad 10.0 Millas
Nubes Despejado
Punto de rocío 39 ° F
Humedad 61%
Precipitaciones -999.00 pul
Espesor de la nieve No disponible.
UV 0 de una escala de 12
Polen 7.90 de una escala de 12
Calidad del aire No disponible.
Flu Activity No disponible.
METAR KL38 261015Z AUTO 31005KT 10SM CLR 10/01 A3005 RMK AO2 T00960007

More Conditions Fewer Conditions

10-Day Weather Forecast

Almanac

Astronomía

Jan. 26, 2015 Salida Puesta
Hora real
Crepúsculo civil
Crepúsculo náutico
Crepúsculo astronómico
Luna
Horas de luz
Horas de luz
Tomorrow will be .
, % of the Moon is Illuminated

Extremos de hoy

Máximos del estado Bajos del estado

Community

WunderPhotos

Upload Photos

1,790,171 ¡fotos cargadas!

WunderBlogs® & News

Nearby

Calidad del aire

  Calidad del aire Índice AQ Contaminante
Not available.

Grosos de nieve

Estación Profundido Altura

Actividad de terremotos

Ciudad Distance Mag. Tiempo y dato
Magnitud mínima muestra es 2,5.

Temperaturas de aguas costeras

Lugar Temperatura

Estaciones meteorológicas cercanas